Address 0x20f2824c69cef36254ca2688fdd992cac25d3659 26

 

Overview

Balance:
0.006159893704291521 ETH

ETH Value:
$19.09 (@ $3,099.27/ETH)

Token:
Txn Hash Method
Block
From
To
Value [Txn Fee]
0xdcf70a693ac19bf4d5c8a1d51f7e34eca61101112cd33e512946eebbc15c202fSend Tokens1825677802024-02-20 5:26:1188 days 36 mins ago0x20f2824c69cef36254ca2688fdd992cac25d3659OUT Stargate Finance: STG Token0.000211730665631 ETH0.00010061 0.1
0x4837265b5b51eb11f0a4f439d4079b8a680a90e57c4b7ebc72fa44555c69028fSend From1825676322024-02-20 5:25:3288 days 37 mins ago0x20f2824c69cef36254ca2688fdd992cac25d3659OUT 0x863656e346d8a42ec7caaad606611b6fd8916f320.000067185905795 ETH0.0000994 0.1
0x360afdc6b7bd45546caf4af50e4262652ea528e16f5491e6c1b813919351abfcApprove1825675962024-02-20 5:25:2288 days 37 mins ago0x20f2824c69cef36254ca2688fdd992cac25d3659OUT 0x8bf591eae535f93a242d5a954d3cde648b48a5a80 ETH0.00004795 0.1
0x4e936021540d7bd5a337864b4baa12b1995f29004e73deb7ccb0b152a94424bdExecute1825674492024-02-20 5:24:4288 days 38 mins ago0x20f2824c69cef36254ca2688fdd992cac25d3659OUT Uniswap: Universal Router V1 20.00000951752303 ETH0.00011875 0.1
0xde8bb9bc1dd6db5c6f5a9aadd22bd9ff032bc36536dbc7b978c7e4eb5effbccbTransfer1825592082024-02-20 4:48:4188 days 1 hr ago0x1b5b4e441f5a22bfd91b7772c780463f66a74b35 IN 0x20f2824c69cef36254ca2688fdd992cac25d36590.0063755 ETH0.00003226 0.1
0xaf78ba1e09cb3a8c830100809923e05b6cbad2d7ed7d9ed02e8fd252bc74990cProcess Route1428005972023-10-22 5:13:57209 days 48 mins ago0x20f2824c69cef36254ca2688fdd992cac25d3659OUT SushiSwap: Route Processor v3.20 ETH0.00006545 0.1
0x425eec1b85ef3c71754ce634d2aad1e64b4af82398cd32ae966b1dd10868d339Approve1428005692023-10-22 5:13:45209 days 49 mins ago0x20f2824c69cef36254ca2688fdd992cac25d3659OUT Angle Protocol: agEUR Token0 ETH0.00002247 0.1
0x0dacb73177f19af92d120cd92b4f2f4f62d0506abe18d0942ab1c511fc3d5c89Send Tokens1428003602023-10-22 5:12:33209 days 50 mins ago0x20f2824c69cef36254ca2688fdd992cac25d3659OUT Stargate Finance: STG Token0.000150475052112 ETH0.00005189 0.1
0xf57557b4f89fccec6b7d3e7cecc64e902ea14baeb462c9c5fd3df97d3984e998Swap ETH1428002832023-10-22 5:12:09209 days 50 mins ago0x20f2824c69cef36254ca2688fdd992cac25d3659OUT Stargate Finance: ETH Router0.001197946059175 ETH0.00007018 0.1
0xd17caa029d350a33a4e3d6d1c6b695c66938893d749ba2b57f774cc0915e03d5Transfer1428000562023-10-22 5:10:57209 days 51 mins ago0x0938c63109801ee4243a487ab84dffa2bba4589e IN 0x20f2824c69cef36254ca2688fdd992cac25d36590.0016688 ETH0.00001373 0.1
0xb2e2d6a005143e58bb6b8d25ac0ac900b59f41710df2fae39b135607cc417f47Execute1361136072023-09-30 13:03:33230 days 16 hrs ago0x20f2824c69cef36254ca2688fdd992cac25d3659OUT Uniswap: Universal Router 30 ETH0.000093 0.1
0x519672370a689804d36432f0aa7d070f79a6d50182ecadfd02a4e5724af8362bApprove1361135142023-09-30 13:03:09230 days 16 hrs ago0x20f2824c69cef36254ca2688fdd992cac25d3659OUT Angle Protocol: agEUR Token0 ETH0.00002567 0.1
0xc6a94800088e969eec03b0655713e4db3a071474df5c6e0bbc74d2bc369b2238Swap ETH1361132952023-09-30 13:02:16230 days 17 hrs ago0x20f2824c69cef36254ca2688fdd992cac25d3659OUT Stargate Finance: ETH Router0.001845837325673 ETH0.00007849 0.1
0x8e2c94f525ec8caadf187d3b04e2cf789bc3d0677d9174259f3d3f7bc66b90f1Send Tokens1361129292023-09-30 13:00:44230 days 17 hrs ago0x20f2824c69cef36254ca2688fdd992cac25d3659OUT Stargate Finance: STG Token0.000283409103043 ETH0.00006072 0.1
0x82c6df08757edc1dd67ec262ae60e73a015ac8706602fb724b8a47ddd14691b3Transfer1361120612023-09-30 12:57:04230 days 17 hrs ago0x0938c63109801ee4243a487ab84dffa2bba4589e IN 0x20f2824c69cef36254ca2688fdd992cac25d36590.00133333 ETH0.00001645 0.1
0x76dabdce732e8b7cd2557852422f42ed0c6157068effce229b33ee45760fb8b2Deposit Native T...1275835932023-09-03 8:00:25257 days 22 hrs ago0x20f2824c69cef36254ca2688fdd992cac25d3659OUT Socket: Refuel0.00028 ETH0.00002688 0.1
0x9960815b9883ba45ca08a00e870fa154642157e11d8395b96176a62aaea3a011Swap ETH1243700262023-08-24 2:55:43268 days 3 hrs ago0x20f2824c69cef36254ca2688fdd992cac25d3659OUT Stargate Finance: ETH Router0.000479422754785 ETH0.00008713 0.1
0x734ef60fb2dde62aeb817e23c36ec488ae4dde75fb10c8b1cf6e7fc38dad5029Swap And Bridge1243697602023-08-24 2:54:36268 days 3 hrs ago0x20f2824c69cef36254ca2688fdd992cac25d3659OUT Layer Zero: Swappable Bridge0.000194340407515 ETH0.00008099 0.1
0x156a35203a6e31b093009317e49055484ab9e4a56b02fd51bc9bd8b8480de10eSend1118007682023-07-16 12:56:47306 days 17 hrs ago0x20f2824c69cef36254ca2688fdd992cac25d3659OUT Angle Protocol: LZ- agEUR Bridge0.000025476077479 ETH0.00008599 0.1
0xddc0e60472025a2fe8d43509eeafcf570d7710dc5f2b85dacddecd9d0f898da8Send1118005862023-07-16 12:56:03306 days 17 hrs ago0x20f2824c69cef36254ca2688fdd992cac25d3659OUT Angle Protocol: LZ- agEUR Bridge0.0003607173792 ETH0.00009239 0.1
0xc28f4ab4a4305ba8a4d7b7d74db984dd46988d3d5f009e30ae255b3270accf0bCross Swap1117999982023-07-16 12:53:35306 days 17 hrs ago0x20f2824c69cef36254ca2688fdd992cac25d3659OUT 0x4ab421de52b3112d02442b040dd3dc73e8af63b50.000344809759647 ETH0.00013179 0.1
0x3da3aa2f8ded7e87f9daf5ea91b212db7a48f2ef29ea07310dac1f3dbe6dca5eSend From1117998182023-07-16 12:52:50306 days 17 hrs ago0x20f2824c69cef36254ca2688fdd992cac25d3659OUT 0x1c3979c2bb4f0e6dcb75daf22ad0741cf7d5f1600.000025650708474 ETH0.00008542 0.1
0x403b50702adf54196d5f03d5c68c17c31388bbf298cb4184180f2aadf9ae5505Approve1117996992023-07-16 12:52:20306 days 17 hrs ago0x20f2824c69cef36254ca2688fdd992cac25d3659OUT Arbitrum: USDC Token0 ETH0.00003938 0.1
0xee5c7d925f7af4aa3a3f29af1ec396c64e6a2b2c9f5ed134819addedd2302ee6Approve1117995112023-07-16 12:51:32306 days 17 hrs ago0x20f2824c69cef36254ca2688fdd992cac25d3659OUT Arbitrum: USDC Token0 ETH0.00003934 0.1
0xe9ad46fb3c2039816c53a607a22b356a2818995fc0e165c235722114f564da06Deposit Native T...1010118172023-06-14 8:02:13338 days 22 hrs ago0x20f2824c69cef36254ca2688fdd992cac25d3659OUT Socket: Refuel0.00031 ETH0.00003352 0.1
[ Download CSV Export 
Latest 5 internal transactions
Parent Txn Hash Block From To Value
0x4e936021540d7bd5a337864b4baa12b1995f29004e73deb7ccb0b152a94424bd1825674492024-02-20 5:24:4288 days 38 mins ago Uniswap: Universal Router V1 20x20f2824c69cef36254ca2688fdd992cac25d36590.000000047350860846 ETH
0xb2e2d6a005143e58bb6b8d25ac0ac900b59f41710df2fae39b135607cc417f471361136072023-09-30 13:03:33230 days 16 hrs ago Uniswap: Universal Router 30x20f2824c69cef36254ca2688fdd992cac25d36590.00012632025917588 ETH
0x734ef60fb2dde62aeb817e23c36ec488ae4dde75fb10c8b1cf6e7fc38dad50291243697602023-08-24 2:54:36268 days 3 hrs ago Layer Zero: Ultra Light Node v20x20f2824c69cef36254ca2688fdd992cac25d36590.000122006938343916 ETH
0x850ea739d9fc16ed0cb949ae161a9389a00dfbf144e18facabaefc1b929f06ee1010051242023-06-14 7:34:24338 days 22 hrs ago Uniswap V3: Router 20x20f2824c69cef36254ca2688fdd992cac25d36590.000000114705954865 ETH
0xef36ff29e5e8e2d7ec8734e0af10e732c294d2cfac6fcbd469a072b894d64b311010049072023-06-14 7:33:29338 days 22 hrs ago 0x2967e7bb9daa5711ac332caf874bd47ef99b38200x20f2824c69cef36254ca2688fdd992cac25d36590.018281151549 ETH
[ Download CSV Export 
Loading

Contract Name:
0 ETH

Compiler Version
0

Optimization Enabled:
0 ETH

Other Settings:
-NA-
Block Transaction Gas Used Reward
Age Block Fee Address BC Fee Address Voting Power Jailed Incoming
Block Uncle Number Difficulty Gas Used Reward
Loading
Make sure to use the "Vote Down" button for any spammy posts, and the "Vote Up" for interesting conversations.